createdAt,value
2022-12-08T00:01:23.072Z,12.25
2022-12-08T00:03:50.657Z,12.57
2022-12-08T00:06:45.691Z,11.63
2022-12-08T00:09:24.911Z,11.63
2022-12-08T00:11:54.091Z,12.35
2022-12-08T00:14:24.002Z,13.23
2022-12-08T00:16:50.645Z,12.65
2022-12-08T00:19:17.277Z,12.85
2022-12-08T00:21:43.840Z,12.40
2022-12-08T00:24:10.403Z,12.38
2022-12-08T00:26:37.099Z,13.25
2022-12-08T00:29:06.129Z,12.10
2022-12-08T00:31:32.805Z,12.90
2022-12-08T00:33:59.764Z,13.10
2022-12-08T00:36:26.827Z,13.13
2022-12-08T00:38:53.367Z,12.32
2022-12-08T00:41:40.931Z,14.80
2022-12-08T00:44:08.430Z,12.90
2022-12-08T00:46:35.332Z,13.45
2022-12-08T00:49:02.724Z,13.88
2022-12-08T00:51:29.561Z,14.18
2022-12-08T00:53:56.229Z,13.15
2022-12-08T00:56:23.266Z,14.73
2022-12-08T00:58:49.852Z,14.60
2022-12-08T01:01:16.617Z,14.50
2022-12-08T01:03:43.394Z,13.95
2022-12-08T01:06:10.845Z,14.27
2022-12-08T01:08:38.240Z,14.25
2022-12-08T01:11:10.841Z,14.20
2022-12-08T01:13:37.703Z,14.07
2022-12-08T01:16:04.392Z,14.05
2022-12-08T01:18:31.085Z,14.90
2022-12-08T01:21:05.602Z,14.00
2022-12-08T01:23:32.546Z,14.45
2022-12-08T01:26:03.467Z,14.60
2022-12-08T01:28:31.240Z,15.95
2022-12-08T01:30:59.221Z,15.80
2022-12-08T01:33:26.623Z,14.20
2022-12-08T01:35:53.712Z,14.65
2022-12-08T01:38:20.299Z,15.70
2022-12-08T01:40:49.137Z,15.85
2022-12-08T01:43:20.569Z,15.30
2022-12-08T01:45:47.883Z,15.15
2022-12-08T01:48:27.186Z,15.55
2022-12-08T01:50:55.633Z,15.15
2022-12-08T01:53:27.623Z,15.60
2022-12-08T01:58:45.122Z,15.45
2022-12-08T02:01:12.473Z,16.00
2022-12-08T02:03:58.960Z,16.20
2022-12-08T02:06:28.668Z,16.25
2022-12-08T02:08:56.483Z,17.43
2022-12-08T02:11:23.042Z,16.23
2022-12-08T02:13:52.153Z,16.20
2022-12-08T02:16:27.877Z,16.15
2022-12-08T02:19:31.795Z,16.85
2022-12-08T02:22:07.459Z,16.42
2022-12-08T02:24:46.044Z,16.85
2022-12-08T02:27:18.409Z,16.80
2022-12-08T02:30:21.123Z,17.13
2022-12-08T02:33:21.878Z,17.77
2022-12-08T02:36:16.011Z,16.90
2022-12-08T02:38:56.257Z,16.08
2022-12-08T02:41:46.984Z,16.60
2022-12-08T02:44:30.223Z,16.83
2022-12-08T02:47:06.295Z,18.33
2022-12-08T02:49:34.612Z,17.73
2022-12-08T02:52:14.181Z,17.52
2022-12-08T02:54:46.575Z,18.27
2022-12-08T02:57:26.084Z,17.83
2022-12-08T02:59:52.648Z,18.17
2022-12-08T03:02:42.115Z,18.42
2022-12-08T03:05:30.925Z,18.80
2022-12-08T03:08:05.094Z,18.67
2022-12-08T03:10:40.575Z,18.92
2022-12-08T03:13:16.197Z,18.27
2022-12-08T03:15:46.751Z,18.58
2022-12-08T03:20:45.289Z,18.58
2022-12-08T03:23:14.535Z,17.75
2022-12-08T03:25:50.596Z,16.50
2022-12-08T03:28:17.247Z,17.52
2022-12-08T03:30:48.096Z,17.70
2022-12-08T03:33:22.347Z,18.02
2022-12-08T03:35:49.724Z,17.13
2022-12-08T03:38:17.183Z,17.60
2022-12-08T03:41:05.109Z,18.00
2022-12-08T03:43:31.685Z,18.75
2022-12-08T03:45:58.252Z,17.35
2022-12-08T03:48:24.764Z,18.10
2022-12-08T03:50:51.315Z,18.63
2022-12-08T03:53:17.833Z,17.92
2022-12-08T03:55:44.364Z,17.75
2022-12-08T03:58:10.850Z,17.52
2022-12-08T04:00:37.404Z,18.90
2022-12-08T04:03:04.646Z,17.83
2022-12-08T04:05:31.257Z,17.35
2022-12-08T04:07:58.217Z,18.75
2022-12-08T04:10:24.842Z,17.95
2022-12-08T04:12:51.514Z,17.70
2022-12-08T04:15:18.067Z,18.52
2022-12-08T04:17:44.583Z,17.95
2022-12-08T04:20:11.618Z,18.75
2022-12-08T04:22:38.191Z,17.90
2022-12-08T04:25:05.276Z,18.00
2022-12-08T04:27:31.789Z,17.98
2022-12-08T04:29:58.290Z,17.30
2022-12-08T04:32:24.840Z,17.60
2022-12-08T04:34:51.392Z,17.58
2022-12-08T04:37:17.937Z,18.85
2022-12-08T04:39:44.439Z,17.70
2022-12-08T04:42:11.004Z,18.00
2022-12-08T04:44:37.594Z,18.05
2022-12-08T04:47:04.305Z,17.50
2022-12-08T04:49:31.018Z,18.90
2022-12-08T04:51:57.584Z,18.20
2022-12-08T04:54:24.251Z,18.38
2022-12-08T04:56:50.956Z,17.70
2022-12-08T04:59:17.459Z,17.27
2022-12-08T05:01:44.117Z,18.20
2022-12-08T05:04:10.742Z,17.10
2022-12-08T05:06:37.262Z,16.58
2022-12-08T05:09:03.833Z,17.27
2022-12-08T05:11:30.463Z,17.60
2022-12-08T05:13:56.995Z,16.55
2022-12-08T05:16:23.607Z,17.23
2022-12-08T05:18:50.218Z,16.58
2022-12-08T05:21:16.752Z,17.83
2022-12-08T05:23:43.587Z,17.70
2022-12-08T05:26:10.094Z,16.85
2022-12-08T05:28:41.881Z,17.55
2022-12-08T05:31:09.301Z,16.88
2022-12-08T05:33:35.907Z,16.60
2022-12-08T05:36:02.470Z,15.45
2022-12-08T05:38:29.485Z,16.77
2022-12-08T05:40:56.031Z,16.05
2022-12-08T05:43:22.564Z,16.13
2022-12-08T05:45:49.229Z,16.00
2022-12-08T05:48:16.047Z,16.33
2022-12-08T05:50:49.567Z,17.00
2022-12-08T05:53:17.580Z,16.00
2022-12-08T05:55:44.452Z,16.10
2022-12-08T05:58:14.136Z,15.93
2022-12-08T06:00:41.532Z,15.97
2022-12-08T06:03:08.541Z,16.13
2022-12-08T06:05:35.903Z,16.67
2022-12-08T06:08:02.700Z,16.60
2022-12-08T06:10:29.497Z,17.25
2022-12-08T06:12:56.059Z,16.50
2022-12-08T06:15:22.581Z,16.63
2022-12-08T06:17:49.453Z,15.77
2022-12-08T06:20:15.972Z,15.68
2022-12-08T06:22:42.567Z,15.73
2022-12-08T06:25:10.273Z,16.17
2022-12-08T06:27:36.974Z,15.45
2022-12-08T06:30:04.668Z,15.30
2022-12-08T06:32:31.501Z,15.10
2022-12-08T06:34:58.102Z,16.38
2022-12-08T06:37:24.668Z,16.55
2022-12-08T06:39:51.859Z,17.05
2022-12-08T06:42:37.318Z,16.25
2022-12-08T06:45:04.246Z,16.20
2022-12-08T06:47:30.806Z,16.60
2022-12-08T06:49:58.438Z,17.48
2022-12-08T06:52:25.099Z,17.13
2022-12-08T06:54:51.679Z,16.90
2022-12-08T06:57:18.669Z,17.33
2022-12-08T06:59:45.324Z,16.70
2022-12-08T07:02:11.997Z,16.40
2022-12-08T07:04:38.540Z,17.25
2022-12-08T07:07:05.105Z,16.77
2022-12-08T07:09:31.746Z,17.42
2022-12-08T07:12:00.664Z,18.40
2022-12-08T07:14:27.258Z,17.83
2022-12-08T07:16:53.940Z,16.80
2022-12-08T07:19:20.649Z,17.10
2022-12-08T07:21:47.384Z,18.45
2022-12-08T07:24:13.918Z,16.90
2022-12-08T07:26:41.195Z,17.30
2022-12-08T07:29:08.526Z,15.93
2022-12-08T07:31:35.100Z,16.67
2022-12-08T07:34:01.790Z,16.85
2022-12-08T07:36:28.330Z,16.63
2022-12-08T07:38:54.876Z,16.92
2022-12-08T07:41:24.283Z,16.45
2022-12-08T07:43:51.302Z,16.45
2022-12-08T07:46:21.283Z,16.85
2022-12-08T07:48:48.235Z,16.98
2022-12-08T07:51:16.369Z,17.80
2022-12-08T07:53:51.578Z,17.75
2022-12-08T07:56:19.951Z,16.67
2022-12-08T07:58:46.903Z,16.88
2022-12-08T08:01:45.485Z,17.88
2022-12-08T08:04:12.455Z,16.92
2022-12-08T08:06:39.159Z,16.77
2022-12-08T08:09:05.962Z,16.88
2022-12-08T08:11:32.553Z,16.83
2022-12-08T08:13:59.270Z,16.58
2022-12-08T08:16:25.998Z,16.42
2022-12-08T08:18:52.726Z,16.50
2022-12-08T08:24:07.543Z,16.67
2022-12-08T08:26:34.234Z,16.27
2022-12-08T08:29:00.804Z,17.60
2022-12-08T08:31:27.494Z,16.42
2022-12-08T08:33:54.337Z,16.17
2022-12-08T08:36:22.139Z,16.88
2022-12-08T08:38:48.801Z,15.10
2022-12-08T08:41:15.423Z,16.25
2022-12-08T08:43:41.989Z,15.93
2022-12-08T08:46:09.105Z,16.10
2022-12-08T08:48:36.260Z,16.25
2022-12-08T08:51:14.002Z,15.95
2022-12-08T08:53:41.025Z,16.35
2022-12-08T08:56:12.362Z,16.13
2022-12-08T08:58:39.030Z,16.13
2022-12-08T09:01:05.946Z,16.88
2022-12-08T09:03:32.572Z,16.67
2022-12-08T09:05:59.400Z,16.38
2022-12-08T09:08:26.206Z,16.90
2022-12-08T09:10:52.873Z,14.60
2022-12-08T09:13:19.499Z,15.00
2022-12-08T09:15:46.115Z,15.35
2022-12-08T09:18:12.800Z,15.13
2022-12-08T09:20:39.537Z,15.30
2022-12-08T09:23:06.086Z,15.52
2022-12-08T09:25:32.691Z,15.20
2022-12-08T09:27:59.224Z,15.02
2022-12-08T09:30:25.791Z,15.38
2022-12-08T09:32:52.437Z,15.93
2022-12-08T09:35:19.024Z,15.20
2022-12-08T09:37:45.706Z,14.18
2022-12-08T09:40:18.750Z,14.82
2022-12-08T09:42:52.088Z,15.80
2022-12-08T09:45:19.853Z,15.07
2022-12-08T09:48:16.045Z,15.98
2022-12-08T09:50:48.436Z,14.60
2022-12-08T09:53:19.453Z,14.70
2022-12-08T09:55:50.736Z,15.13
2022-12-08T09:58:54.759Z,14.45
2022-12-08T10:01:23.536Z,14.60
2022-12-08T10:03:50.414Z,14.57
2022-12-08T10:06:17.006Z,15.25
2022-12-08T10:08:55.079Z,14.88
2022-12-08T10:11:29.268Z,14.85
2022-12-08T10:14:19.169Z,13.60
2022-12-08T10:16:50.007Z,14.37
2022-12-08T10:19:25.269Z,12.57
2022-12-08T10:21:53.679Z,13.70
2022-12-08T10:24:31.599Z,13.57
2022-12-08T10:26:58.464Z,12.73
2022-12-08T10:29:25.023Z,13.85
2022-12-08T10:31:51.694Z,12.93
2022-12-08T10:34:23.239Z,12.63
2022-12-08T10:36:53.042Z,12.63
2022-12-08T10:39:31.498Z,12.50
2022-12-08T10:42:08.472Z,12.43
2022-12-08T10:44:56.230Z,12.00
2022-12-08T10:47:25.630Z,12.57
2022-12-08T10:50:20.954Z,12.00
2022-12-08T10:53:09.480Z,12.00
2022-12-08T10:55:48.221Z,11.80
2022-12-08T10:58:26.783Z,10.88
2022-12-08T11:00:57.729Z,10.77
2022-12-08T11:03:33.893Z,10.90
2022-12-08T11:06:08.943Z,11.80
2022-12-08T11:08:47.075Z,11.02
2022-12-08T11:11:13.968Z,10.57
2022-12-08T11:13:42.017Z,10.98
2022-12-08T11:16:11.666Z,11.00
2022-12-08T11:18:56.303Z,10.30
2022-12-08T11:21:34.676Z,11.20
2022-12-08T11:24:18.675Z,11.13
2022-12-08T11:27:06.422Z,11.18
2022-12-08T11:29:35.226Z,10.98
2022-12-08T11:32:13.493Z,11.60
2022-12-08T11:34:53.259Z,10.80
2022-12-08T11:37:34.460Z,10.50
2022-12-08T11:40:07.098Z,9.90
2022-12-08T11:42:45.316Z,10.38
2022-12-08T11:45:20.088Z,9.32
2022-12-08T11:47:56.119Z,10.65
2022-12-08T11:50:29.484Z,10.23
2022-12-08T11:52:58.236Z,10.68
2022-12-08T11:55:27.343Z,10.52
2022-12-08T11:57:57.167Z,11.32
2022-12-08T12:00:23.969Z,11.70
2022-12-08T12:02:58.928Z,10.18
2022-12-08T12:06:03.325Z,9.45
2022-12-08T12:08:39.268Z,9.73
2022-12-08T12:11:42.013Z,9.57
2022-12-08T12:14:48.831Z,10.43
2022-12-08T12:17:36.416Z,9.52
2022-12-08T12:20:10.058Z,9.50
2022-12-08T12:22:37.888Z,9.82
2022-12-08T12:25:05.424Z,10.20
2022-12-08T12:27:40.300Z,10.18
2022-12-08T12:30:18.646Z,9.38
2022-12-08T12:32:49.147Z,10.43
2022-12-08T12:35:33.205Z,10.02
2022-12-08T12:38:40.305Z,9.85
2022-12-08T12:41:08.221Z,10.43
2022-12-08T12:43:37.163Z,10.60
2022-12-08T12:46:22.656Z,11.10
2022-12-08T12:48:50.222Z,10.65
2022-12-08T12:51:36.103Z,9.82
2022-12-08T12:54:26.574Z,10.60
2022-12-08T12:57:16.458Z,9.55
2022-12-08T12:59:55.653Z,9.97
2022-12-08T13:02:38.437Z,8.65
2022-12-08T13:05:26.954Z,9.02
2022-12-08T13:08:02.123Z,9.27
2022-12-08T13:10:39.087Z,9.15
2022-12-08T13:13:12.681Z,8.07
2022-12-08T13:15:47.161Z,7.60
2022-12-08T13:18:21.299Z,6.97
2022-12-08T13:20:52.638Z,7.05
2022-12-08T13:24:14.223Z,7.95
2022-12-08T13:26:44.484Z,7.30
2022-12-08T13:29:22.597Z,7.20
2022-12-08T13:31:56.302Z,7.97
2022-12-08T13:34:45.587Z,6.97
2022-12-08T13:37:12.177Z,6.57
2022-12-08T13:40:14.265Z,6.45
2022-12-08T13:43:16.955Z,5.68
2022-12-08T13:57:32.843Z,4.30
2022-12-08T14:00:13.796Z,4.25
2022-12-08T14:05:19.508Z,4.93
2022-12-08T14:07:49.980Z,6.20
2022-12-08T14:10:30.414Z,6.10
2022-12-08T14:13:11.215Z,5.72
2022-12-08T14:18:06.665Z,4.45
2022-12-08T14:20:51.883Z,4.07
2022-12-08T14:23:21.605Z,5.65
2022-12-08T14:25:48.518Z,5.32
2022-12-08T14:28:15.049Z,6.82
2022-12-08T14:30:43.093Z,7.13
2022-12-08T14:33:15.120Z,6.47
2022-12-08T14:35:41.818Z,5.18
2022-12-08T14:38:16.804Z,4.75
2022-12-08T14:40:45.747Z,5.03
2022-12-08T14:43:14.884Z,5.32
2022-12-08T14:45:41.562Z,5.72
2022-12-08T14:48:28.083Z,5.50
2022-12-08T14:51:11.796Z,5.80
2022-12-08T14:53:43.275Z,7.10
2022-12-08T14:56:21.820Z,5.18
2022-12-08T14:58:51.507Z,5.30
2022-12-08T15:01:23.569Z,5.13
2022-12-08T15:03:51.434Z,6.07
2022-12-08T15:06:21.790Z,5.82
2022-12-08T15:08:55.380Z,5.72
2022-12-08T15:11:21.807Z,6.07
2022-12-08T15:13:50.931Z,6.18
2022-12-08T15:16:32.056Z,5.15
2022-12-08T15:19:05.648Z,5.72
2022-12-08T15:21:38.968Z,4.80
2022-12-08T15:24:06.025Z,5.78
2022-12-08T15:26:40.666Z,5.38
2022-12-08T15:29:28.867Z,4.93
2022-12-08T15:31:58.290Z,4.45
2022-12-08T15:34:25.364Z,4.60
2022-12-08T15:36:54.276Z,4.00
2022-12-08T15:39:20.739Z,4.93
2022-12-08T15:41:47.255Z,4.65
2022-12-08T15:44:14.237Z,4.50
2022-12-08T15:46:40.799Z,4.53
2022-12-08T15:49:16.322Z,4.50
2022-12-08T15:51:42.912Z,4.95
2022-12-08T15:54:09.482Z,5.15
2022-12-08T15:56:50.660Z,5.25
2022-12-08T15:59:25.209Z,5.93
2022-12-08T16:01:52.703Z,6.15
2022-12-08T16:05:11.593Z,6.88
2022-12-08T16:07:37.826Z,8.65
2022-12-08T16:10:06.270Z,9.20
2022-12-08T16:15:57.096Z,10.18
2022-12-08T16:18:29.171Z,11.05
2022-12-08T16:21:09.742Z,10.27
2022-12-08T16:23:44.638Z,11.73
2022-12-08T16:26:35.657Z,11.45
2022-12-08T16:29:04.802Z,11.85
2022-12-08T16:31:31.716Z,11.35
2022-12-08T16:34:00.453Z,12.18
2022-12-08T16:36:27.045Z,11.85
2022-12-08T16:38:53.612Z,11.15
2022-12-08T16:41:38.692Z,12.13
2022-12-08T16:44:06.625Z,12.57
2022-12-08T16:46:33.394Z,11.63
2022-12-08T16:48:59.970Z,12.02
2022-12-08T16:51:27.522Z,11.13
2022-12-08T16:53:55.402Z,11.27
2022-12-08T16:56:28.771Z,11.95
2022-12-08T16:58:58.709Z,11.73
2022-12-08T17:01:25.379Z,12.05
2022-12-08T17:04:22.596Z,12.57
2022-12-08T17:06:38.530Z,10.80
2022-12-08T17:09:05.126Z,11.57
2022-12-08T17:11:36.214Z,12.15
2022-12-08T17:14:05.815Z,13.20
2022-12-08T17:16:32.440Z,12.35
2022-12-08T17:18:59.062Z,11.73
2022-12-08T17:21:25.702Z,11.57
2022-12-08T17:23:54.637Z,12.60
2022-12-08T17:26:21.210Z,12.52
2022-12-08T17:29:03.003Z,12.88
2022-12-08T17:31:32.039Z,12.32
2022-12-08T17:34:01.510Z,12.45
2022-12-08T17:36:28.422Z,12.35
2022-12-08T17:38:55.930Z,13.88
2022-12-08T17:41:22.572Z,13.38
2022-12-08T17:43:49.083Z,12.68
2022-12-08T17:46:19.505Z,13.55
2022-12-08T17:48:46.173Z,12.73
2022-12-08T17:51:12.980Z,12.32
2022-12-08T17:53:42.614Z,12.95
2022-12-08T17:56:18.057Z,12.52
2022-12-08T17:58:46.628Z,12.88
2022-12-08T18:01:16.409Z,12.93
2022-12-08T18:03:43.015Z,13.23
2022-12-08T18:06:12.360Z,14.60
2022-12-08T18:08:39.905Z,13.45
2022-12-08T18:11:14.829Z,12.80
2022-12-08T18:13:41.455Z,12.63
2022-12-08T18:16:08.357Z,18.40
2022-12-08T18:18:34.889Z,16.83
2022-12-08T18:21:01.444Z,15.95
2022-12-08T18:23:28.074Z,13.60
2022-12-08T18:25:54.767Z,13.50
2022-12-08T18:28:21.321Z,12.93
2022-12-08T18:30:47.958Z,12.90
2022-12-08T18:33:14.710Z,13.18
2022-12-08T18:35:41.263Z,14.23
2022-12-08T18:38:07.862Z,13.10
2022-12-08T18:40:34.555Z,12.65
2022-12-08T18:43:01.127Z,13.02
2022-12-08T18:45:27.665Z,12.52
2022-12-08T18:47:54.794Z,12.07
2022-12-08T18:50:21.356Z,12.55
2022-12-08T18:52:48.359Z,12.40
2022-12-08T18:55:15.645Z,11.77
2022-12-08T18:57:43.284Z,12.63
2022-12-08T19:00:13.774Z,12.23
2022-12-08T19:02:41.798Z,11.70
2022-12-08T19:05:09.857Z,12.38
2022-12-08T19:07:37.017Z,13.30
2022-12-08T19:10:05.901Z,13.10
2022-12-08T19:12:32.793Z,13.70
2022-12-08T19:14:59.419Z,13.30
2022-12-08T19:17:26.048Z,12.63
2022-12-08T19:19:52.749Z,12.18
2022-12-08T19:22:19.262Z,12.75
2022-12-08T19:24:46.297Z,12.52
2022-12-08T19:27:13.130Z,13.38
2022-12-08T19:29:39.800Z,12.50
2022-12-08T19:32:06.440Z,12.52
2022-12-08T19:34:33.005Z,13.05
2022-12-08T19:36:59.517Z,12.60
2022-12-08T19:39:44.564Z,11.98
2022-12-08T19:42:33.058Z,13.27
2022-12-08T19:45:11.880Z,14.38
2022-12-08T19:47:39.385Z,12.95
2022-12-08T19:50:27.221Z,12.10
2022-12-08T19:52:54.183Z,12.40
2022-12-08T19:55:20.916Z,13.05
2022-12-08T19:57:47.663Z,13.05
2022-12-08T20:00:14.652Z,13.23
2022-12-08T20:02:41.391Z,12.57
2022-12-08T20:05:09.468Z,12.20
2022-12-08T20:07:36.172Z,12.13
2022-12-08T20:10:09.289Z,12.50
2022-12-08T20:12:35.968Z,11.80
2022-12-08T20:15:02.496Z,12.70
2022-12-08T20:17:29.119Z,13.75
2022-12-08T20:19:55.720Z,12.77
2022-12-08T20:22:22.271Z,11.63
2022-12-08T20:24:57.247Z,11.70
2022-12-08T20:27:27.447Z,11.05
2022-12-08T20:29:53.989Z,11.00
2022-12-08T20:32:20.507Z,11.35
2022-12-08T20:34:47.041Z,11.23
2022-12-08T20:37:14.059Z,11.20
2022-12-08T20:39:40.586Z,10.88
2022-12-08T20:42:07.137Z,11.45
2022-12-08T20:44:33.666Z,11.32
2022-12-08T20:47:00.391Z,11.32
2022-12-08T20:49:31.289Z,11.10
2022-12-08T20:52:00.883Z,12.32
2022-12-08T20:54:28.106Z,10.93
2022-12-08T20:56:54.741Z,10.43
2022-12-08T20:59:21.361Z,10.50
2022-12-08T21:01:48.067Z,11.93
2022-12-08T21:04:14.868Z,10.70
2022-12-08T21:06:41.597Z,10.75
2022-12-08T21:09:08.814Z,10.80
2022-12-08T21:11:35.907Z,11.82
2022-12-08T21:14:02.710Z,11.88
2022-12-08T21:16:29.491Z,11.55
2022-12-08T21:18:56.542Z,11.07
2022-12-08T21:21:23.245Z,12.63
2022-12-08T21:23:49.811Z,12.25
2022-12-08T21:26:19.590Z,12.18
2022-12-08T21:28:46.665Z,11.00
2022-12-08T21:31:18.947Z,11.93
2022-12-08T21:33:45.884Z,11.82
2022-12-08T21:36:17.521Z,12.07
2022-12-08T21:38:45.059Z,11.35
2022-12-08T21:41:15.528Z,11.98
2022-12-08T21:43:43.400Z,11.82
2022-12-08T21:46:17.341Z,11.80
2022-12-08T21:48:44.368Z,12.25
2022-12-08T21:51:11.266Z,12.35
2022-12-08T21:53:37.784Z,12.40
2022-12-08T21:56:09.141Z,11.85
2022-12-08T21:58:36.030Z,11.95
2022-12-08T22:01:10.223Z,11.57
2022-12-08T22:03:39.344Z,11.65
2022-12-08T22:06:08.191Z,12.27
2022-12-08T22:08:35.307Z,11.73
2022-12-08T22:11:02.122Z,13.45
2022-12-08T22:13:29.013Z,13.35
2022-12-08T22:16:00.623Z,12.85
2022-12-08T22:18:27.584Z,12.48
2022-12-08T22:20:54.284Z,13.15
2022-12-08T22:23:21.712Z,15.98
2022-12-08T22:25:58.387Z,13.43
2022-12-08T22:28:26.449Z,14.35
2022-12-08T22:30:53.475Z,14.40
2022-12-08T22:33:20.646Z,14.20
2022-12-08T22:36:08.205Z,13.38
2022-12-08T22:38:37.352Z,13.55
2022-12-08T22:41:05.626Z,13.45
2022-12-08T22:43:33.190Z,14.10
2022-12-08T22:46:00.006Z,13.63
2022-12-08T22:48:26.778Z,14.40
2022-12-08T22:51:01.556Z,15.30
2022-12-08T22:53:28.232Z,14.50
2022-12-08T22:55:55.166Z,14.13
2022-12-08T22:58:21.835Z,15.32
2022-12-08T23:00:48.395Z,15.25
2022-12-08T23:03:15.075Z,15.50
2022-12-08T23:05:42.474Z,16.38
2022-12-08T23:08:15.267Z,15.15
2022-12-08T23:10:43.202Z,15.73
2022-12-08T23:13:10.140Z,15.93
2022-12-08T23:15:38.377Z,16.33
2022-12-08T23:18:05.758Z,16.80
2022-12-08T23:20:32.607Z,16.83
2022-12-08T23:22:59.298Z,17.17
2022-12-08T23:25:26.007Z,16.05
2022-12-08T23:27:52.933Z,17.65
2022-12-08T23:30:19.545Z,15.40
2022-12-08T23:32:46.276Z,16.63
2022-12-08T23:35:12.909Z,17.40
2022-12-08T23:37:39.696Z,17.85
2022-12-08T23:40:07.671Z,17.08
2022-12-08T23:42:34.685Z,17.15
2022-12-08T23:45:01.537Z,18.17
2022-12-08T23:47:28.446Z,17.48
2022-12-08T23:49:55.358Z,17.40
2022-12-08T23:52:22.168Z,18.15
2022-12-08T23:54:52.000Z,17.25
2022-12-08T23:57:18.685Z,18.17
2022-12-08T23:59:45.440Z,17.58
